sensor_id;sensor_type;location;lat;lon;timestamp;pressure;altitude;pressure_sealevel;temperature;humidity
64844;BME280;51310;52.198;5.422;2023-06-10T00:02:16;101533.00;;;20.44;45.57
64844;BME280;51310;52.198;5.422;2023-06-10T00:04:42;101438.59;;;19.88;45.83
64844;BME280;51310;52.198;5.422;2023-06-10T00:07:08;101161.31;;;18.10;45.44
64844;BME280;51310;52.198;5.422;2023-06-10T00:09:36;101528.34;;;20.38;45.62
64844;BME280;51310;52.198;5.422;2023-06-10T00:12:07;101571.09;;;20.33;45.42
64844;BME280;51310;52.198;5.422;2023-06-10T00:14:39;101148.06;;;17.94;44.90
64844;BME280;51310;52.198;5.422;2023-06-10T00:17:08;101448.72;;;19.71;45.31
64844;BME280;51310;52.198;5.422;2023-06-10T00:19:34;101110.31;;;17.66;44.91
64844;BME280;51310;52.198;5.422;2023-06-10T00:22:01;101390.53;;;19.34;45.03
64844;BME280;51310;52.198;5.422;2023-06-10T00:24:28;101541.19;;;20.21;44.84
64844;BME280;51310;52.198;5.422;2023-06-10T00:26:54;101559.69;;;20.16;44.92
64844;BME280;51310;52.198;5.422;2023-06-10T00:29:20;101073.34;;;17.24;45.52
64844;BME280;51310;52.198;5.422;2023-06-10T00:31:46;101532.38;;;20.12;44.70
64844;BME280;51310;52.198;5.422;2023-06-10T00:34:13;101428.38;;;19.24;44.83
64844;BME280;51310;52.198;5.422;2023-06-10T00:36:38;101510.31;;;19.87;44.80
64844;BME280;51310;52.198;5.422;2023-06-10T00:39:04;101526.34;;;19.96;44.79
64844;BME280;51310;52.198;5.422;2023-06-10T00:41:31;101088.00;;;17.28;44.69
64844;BME280;51310;52.198;5.422;2023-06-10T00:43:59;101542.94;;;19.99;44.83
64844;BME280;51310;52.198;5.422;2023-06-10T00:46:25;101374.19;;;18.91;44.81
64844;BME280;51310;52.198;5.422;2023-06-10T00:48:52;101485.63;;;19.54;44.90
64844;BME280;51310;52.198;5.422;2023-06-10T00:51:18;101544.59;;;19.85;45.18
64844;BME280;51310;52.198;5.422;2023-06-10T00:53:45;101482.56;;;19.43;45.26
64844;BME280;51310;52.198;5.422;2023-06-10T00:56:11;101451.53;;;19.25;45.39
64844;BME280;51310;52.198;5.422;2023-06-10T00:58:38;101586.53;;;19.72;45.40
64844;BME280;51310;52.198;5.422;2023-06-10T01:01:05;100887.97;;;15.61;44.65
64844;BME280;51310;52.198;5.422;2023-06-10T01:03:31;101528.53;;;19.62;45.40
64844;BME280;51310;52.198;5.422;2023-06-10T01:06:41;101069.13;;;16.75;45.25
64844;BME280;51310;52.198;5.422;2023-06-10T01:10:08;101595.03;;;19.60;45.65
64844;BME280;51310;52.198;5.422;2023-06-10T01:12:43;101457.03;;;19.09;45.85
64844;BME280;51310;52.198;5.422;2023-06-10T01:15:16;101416.06;;;18.77;46.01
64844;BME280;51310;52.198;5.422;2023-06-10T01:18:09;101551.06;;;19.53;46.13
64844;BME280;51310;52.198;5.422;2023-06-10T01:20:41;101556.00;;;19.50;46.61
64844;BME280;51310;52.198;5.422;2023-06-10T01:23:10;101561.59;;;19.40;46.69
64844;BME280;51310;52.198;5.422;2023-06-10T01:26:04;101023.78;;;16.12;46.91
64844;BME280;51310;52.198;5.422;2023-06-10T01:28:57;101540.81;;;19.19;47.31
64844;BME280;51310;52.198;5.422;2023-06-10T01:31:43;101585.00;;;19.31;47.10
64844;BME280;51310;52.198;5.422;2023-06-10T01:34:23;101124.44;;;16.59;47.37
64844;BME280;51310;52.198;5.422;2023-06-10T01:36:51;101039.16;;;16.02;47.28
64844;BME280;51310;52.198;5.422;2023-06-10T01:39:23;101554.03;;;19.21;47.69
64844;BME280;51310;52.198;5.422;2023-06-10T01:41:50;101554.41;;;19.18;47.71
64844;BME280;51310;52.198;5.422;2023-06-10T01:44:22;101080.66;;;16.20;48.11
64844;BME280;51310;52.198;5.422;2023-06-10T01:46:49;101462.72;;;18.60;47.94
64844;BME280;51310;52.198;5.422;2023-06-10T01:49:15;101534.63;;;18.96;48.47
64844;BME280;51310;52.198;5.422;2023-06-10T01:51:41;101465.50;;;18.52;48.29
64844;BME280;51310;52.198;5.422;2023-06-10T01:54:07;101164.03;;;16.55;48.44
64844;BME280;51310;52.198;5.422;2023-06-10T01:56:33;101555.53;;;19.00;48.77
64844;BME280;51310;52.198;5.422;2023-06-10T01:58:59;101465.72;;;18.42;48.88
64844;BME280;51310;52.198;5.422;2023-06-10T02:01:26;101537.78;;;18.60;49.05
64844;BME280;51310;52.198;5.422;2023-06-10T02:03:52;100877.59;;;14.79;48.75
64844;BME280;51310;52.198;5.422;2023-06-10T02:06:18;101052.38;;;15.87;49.18
64844;BME280;51310;52.198;5.422;2023-06-10T02:08:44;101477.25;;;18.43;49.28
64844;BME280;51310;52.198;5.422;2023-06-10T02:11:10;101463.44;;;18.31;49.44
64844;BME280;51310;52.198;5.422;2023-06-10T02:13:36;101480.66;;;18.29;49.74
64844;BME280;51310;52.198;5.422;2023-06-10T02:16:01;101467.16;;;18.22;49.96
64844;BME280;51310;52.198;5.422;2023-06-10T02:18:28;101552.31;;;18.43;49.78
64844;BME280;51310;52.198;5.422;2023-06-10T02:20:54;101109.75;;;15.99;50.03
64844;BME280;51310;52.198;5.422;2023-06-10T02:23:20;100975.88;;;15.14;50.21
64844;BME280;51310;52.198;5.422;2023-06-10T02:25:46;101483.81;;;18.09;50.59
64844;BME280;51310;52.198;5.422;2023-06-10T02:28:13;101217.81;;;16.52;50.89
64844;BME280;51310;52.198;5.422;2023-06-10T02:30:41;101619.94;;;18.61;50.91
64844;BME280;51310;52.198;5.422;2023-06-10T02:33:08;101444.88;;;17.82;51.15
64844;BME280;51310;52.198;5.422;2023-06-10T02:35:38;101478.66;;;18.00;51.44
64844;BME280;51310;52.198;5.422;2023-06-10T02:38:05;101387.44;;;17.46;51.40
64844;BME280;51310;52.198;5.422;2023-06-10T02:40:31;101443.75;;;17.77;51.59
64844;BME280;51310;52.198;5.422;2023-06-10T02:42:57;101359.22;;;17.27;51.61
64844;BME280;51310;52.198;5.422;2023-06-10T02:45:24;101576.06;;;18.54;51.70
64844;BME280;51310;52.198;5.422;2023-06-10T02:47:50;101480.81;;;17.96;51.88
64844;BME280;51310;52.198;5.422;2023-06-10T02:50:16;101575.06;;;18.47;52.11
64844;BME280;51310;52.198;5.422;2023-06-10T02:52:43;101114.06;;;15.59;52.28
64844;BME280;51310;52.198;5.422;2023-06-10T02:55:09;101183.31;;;16.02;52.44
64844;BME280;51310;52.198;5.422;2023-06-10T02:57:35;101076.53;;;15.37;52.47
64844;BME280;51310;52.198;5.422;2023-06-10T03:00:01;101479.41;;;17.77;52.86
64844;BME280;51310;52.198;5.422;2023-06-10T03:02:28;101479.06;;;17.72;53.09
64844;BME280;51310;52.198;5.422;2023-06-10T03:04:58;101569.09;;;18.29;52.99
64844;BME280;51310;52.198;5.422;2023-06-10T03:07:23;101575.81;;;18.25;53.56
64844;BME280;51310;52.198;5.422;2023-06-10T03:09:50;101107.91;;;15.43;53.56
64844;BME280;51310;52.198;5.422;2023-06-10T03:12:16;101473.84;;;17.62;53.40
64844;BME280;51310;52.198;5.422;2023-06-10T03:14:42;101479.22;;;17.62;53.69
64844;BME280;51310;52.198;5.422;2023-06-10T03:17:08;101547.13;;;17.94;54.06
64844;BME280;51310;52.198;5.422;2023-06-10T03:19:34;101576.56;;;18.10;54.13
64844;BME280;51310;52.198;5.422;2023-06-10T03:22:14;101154.06;;;15.51;53.88
64844;BME280;51310;52.198;5.422;2023-06-10T03:24:41;101478.44;;;17.46;54.33
64844;BME280;51310;52.198;5.422;2023-06-10T03:27:09;101612.41;;;17.93;54.49
64844;BME280;51310;52.198;5.422;2023-06-10T03:29:37;101611.75;;;17.99;54.62
64844;BME280;51310;52.198;5.422;2023-06-10T03:32:03;101591.31;;;17.98;54.66
64844;BME280;51310;52.198;5.422;2023-06-10T03:34:29;101563.19;;;17.86;54.68
64844;BME280;51310;52.198;5.422;2023-06-10T03:36:56;101454.38;;;16.89;54.79
64844;BME280;51310;52.198;5.422;2023-06-10T03:39:22;101504.19;;;17.30;55.05
64844;BME280;51310;52.198;5.422;2023-06-10T03:41:50;101588.47;;;17.91;55.09
64844;BME280;51310;52.198;5.422;2023-06-10T03:44:16;101496.69;;;17.34;55.07
64844;BME280;51310;52.198;5.422;2023-06-10T03:46:42;101630.84;;;17.88;55.64
64844;BME280;51310;52.198;5.422;2023-06-10T03:49:08;101219.34;;;15.65;55.55
64844;BME280;51310;52.198;5.422;2023-06-10T03:51:35;101594.84;;;17.82;55.68
64844;BME280;51310;52.198;5.422;2023-06-10T03:54:02;101417.78;;;16.73;55.95
64844;BME280;51310;52.198;5.422;2023-06-10T03:56:28;101523.44;;;17.34;55.76
64844;BME280;51310;52.198;5.422;2023-06-10T03:58:54;101487.63;;;17.11;55.99
64844;BME280;51310;52.198;5.422;2023-06-10T04:01:21;101596.69;;;17.74;56.28
64844;BME280;51310;52.198;5.422;2023-06-10T04:03:48;101106.44;;;14.82;55.98
64844;BME280;51310;52.198;5.422;2023-06-10T04:06:16;101504.19;;;17.14;56.54
64844;BME280;51310;52.198;5.422;2023-06-10T04:08:42;101594.69;;;17.76;56.35
64844;BME280;51310;52.198;5.422;2023-06-10T04:11:09;101592.16;;;17.74;56.30
64844;BME280;51310;52.198;5.422;2023-06-10T04:13:35;101594.69;;;17.76;56.50
64844;BME280;51310;52.198;5.422;2023-06-10T04:16:00;101118.59;;;14.84;56.51
64844;BME280;51310;52.198;5.422;2023-06-10T04:18:28;100766.41;;;12.63;56.51
64844;BME280;51310;52.198;5.422;2023-06-10T04:20:54;101507.84;;;17.21;56.52
64844;BME280;51310;52.198;5.422;2023-06-10T04:23:21;101102.91;;;14.73;56.64
64844;BME280;51310;52.198;5.422;2023-06-10T04:25:46;101298.22;;;15.68;56.77
64844;BME280;51310;52.198;5.422;2023-06-10T04:28:13;101512.06;;;17.24;56.97
64844;BME280;51310;52.198;5.422;2023-06-10T04:30:39;101119.25;;;14.86;57.01
64844;BME280;51310;52.198;5.422;2023-06-10T04:33:05;101104.09;;;14.79;56.84
64844;BME280;51310;52.198;5.422;2023-06-10T04:35:33;101169.53;;;15.23;57.09
64844;BME280;51310;52.198;5.422;2023-06-10T04:37:59;100762.38;;;12.77;56.86
64844;BME280;51310;52.198;5.422;2023-06-10T04:40:25;101612.75;;;17.98;56.87
64844;BME280;51310;52.198;5.422;2023-06-10T04:42:51;101529.75;;;17.41;56.84
64844;BME280;51310;52.198;5.422;2023-06-10T04:45:17;101611.38;;;18.02;57.15
64844;BME280;51310;52.198;5.422;2023-06-10T04:47:42;101622.75;;;18.12;57.08
64844;BME280;51310;52.198;5.422;2023-06-10T04:50:09;101614.72;;;18.20;57.14
64844;BME280;51310;52.198;5.422;2023-06-10T04:52:35;101539.78;;;17.88;56.46
64844;BME280;51310;52.198;5.422;2023-06-10T04:55:01;101452.31;;;17.56;56.40
64844;BME280;51310;52.198;5.422;2023-06-10T04:57:27;101151.13;;;15.95;55.51
64844;BME280;51310;52.198;5.422;2023-06-10T04:59:53;101131.94;;;16.00;55.02
64844;BME280;51310;52.198;5.422;2023-06-10T05:02:19;101465.66;;;18.19;54.62
64844;BME280;51310;52.198;5.422;2023-06-10T05:04:45;101582.34;;;19.00;54.41
64844;BME280;51310;52.198;5.422;2023-06-10T05:07:10;100986.84;;;15.52;53.80
64844;BME280;51310;52.198;5.422;2023-06-10T05:09:37;101623.28;;;19.48;53.53
64844;BME280;51310;52.198;5.422;2023-06-10T05:12:04;101636.34;;;19.28;53.51
64844;BME280;51310;52.198;5.422;2023-06-10T05:14:30;101529.00;;;19.05;53.58
64844;BME280;51310;52.198;5.422;2023-06-10T05:16:57;101668.06;;;19.56;53.52
64844;BME280;51310;52.198;5.422;2023-06-10T05:19:23;101441.66;;;18.57;53.51
64844;BME280;51310;52.198;5.422;2023-06-10T05:21:49;101580.97;;;19.73;54.14
64844;BME280;51310;52.198;5.422;2023-06-10T05:24:14;101614.75;;;20.05;53.51
64844;BME280;51310;52.198;5.422;2023-06-10T05:26:40;101620.38;;;19.96;52.84
64844;BME280;51310;52.198;5.422;2023-06-10T05:29:07;101630.97;;;20.12;52.43
64844;BME280;51310;52.198;5.422;2023-06-10T05:31:34;101531.63;;;19.51;52.35
64844;BME280;51310;52.198;5.422;2023-06-10T05:34:00;101577.97;;;19.30;52.34
64844;BME280;51310;52.198;5.422;2023-06-10T05:36:26;101527.53;;;19.63;52.01
64844;BME280;51310;52.198;5.422;2023-06-10T05:38:53;101449.69;;;19.26;52.28
64844;BME280;51310;52.198;5.422;2023-06-10T05:41:18;101502.13;;;19.66;52.04
64844;BME280;51310;52.198;5.422;2023-06-10T05:43:45;101631.94;;;20.48;51.55
64844;BME280;51310;52.198;5.422;2023-06-10T05:46:12;101173.16;;;17.47;51.89
64844;BME280;51310;52.198;5.422;2023-06-10T05:48:38;101159.97;;;17.46;51.23
64844;BME280;51310;52.198;5.422;2023-06-10T05:51:04;101630.31;;;20.39;50.93
64844;BME280;51310;52.198;5.422;2023-06-10T05:53:30;101632.78;;;20.64;50.49
64844;BME280;51310;52.198;5.422;2023-06-10T05:55:57;101632.00;;;20.70;50.51
64844;BME280;51310;52.198;5.422;2023-06-10T05:58:23;101613.69;;;20.44;51.32
64844;BME280;51310;52.198;5.422;2023-06-10T06:00:50;101601.31;;;20.05;51.09
64844;BME280;51310;52.198;5.422;2023-06-10T06:03:17;101698.63;;;20.53;50.72
64844;BME280;51310;52.198;5.422;2023-06-10T06:05:43;101625.53;;;20.64;50.66
64844;BME280;51310;52.198;5.422;2023-06-10T06:08:10;101575.72;;;20.68;50.55
64844;BME280;51310;52.198;5.422;2023-06-10T06:10:36;101218.13;;;18.58;49.73
64844;BME280;51310;52.198;5.422;2023-06-10T06:13:02;101172.69;;;18.27;49.90
64844;BME280;51310;52.198;5.422;2023-06-10T06:15:28;101274.97;;;19.06;49.90
64844;BME280;51310;52.198;5.422;2023-06-10T06:17:54;101624.31;;;21.18;49.46
64844;BME280;51310;52.198;5.422;2023-06-10T06:20:22;101639.16;;;21.14;49.55
64844;BME280;51310;52.198;5.422;2023-06-10T06:22:48;101521.03;;;20.46;49.70
64844;BME280;51310;52.198;5.422;2023-06-10T06:25:14;101350.53;;;19.83;49.19
64844;BME280;51310;52.198;5.422;2023-06-10T06:27:41;101187.19;;;18.85;48.68
64844;BME280;51310;52.198;5.422;2023-06-10T06:30:07;101360.38;;;19.61;49.29
64844;BME280;51310;52.198;5.422;2023-06-10T06:32:33;101673.56;;;21.54;48.75
64844;BME280;51310;52.198;5.422;2023-06-10T06:34:59;101631.94;;;21.35;48.74
64844;BME280;51310;52.198;5.422;2023-06-10T06:37:26;101579.59;;;21.02;49.16
64844;BME280;51310;52.198;5.422;2023-06-10T06:39:53;101603.59;;;21.18;49.28
64844;BME280;51310;52.198;5.422;2023-06-10T06:42:20;101534.66;;;21.24;48.64
64844;BME280;51310;52.198;5.422;2023-06-10T06:44:47;101658.38;;;21.68;48.31
64844;BME280;51310;52.198;5.422;2023-06-10T06:47:13;101671.84;;;21.68;48.65
64844;BME280;51310;52.198;5.422;2023-06-10T06:49:39;101648.91;;;21.79;48.17
64844;BME280;51310;52.198;5.422;2023-06-10T06:52:06;101353.56;;;20.16;48.05
64844;BME280;51310;52.198;5.422;2023-06-10T06:54:32;101553.16;;;20.69;49.03
64844;BME280;51310;52.198;5.422;2023-06-10T06:56:58;101552.75;;;20.87;49.07
64844;BME280;51310;52.198;5.422;2023-06-10T06:59:23;101634.63;;;21.57;48.84
64844;BME280;51310;52.198;5.422;2023-06-10T07:01:51;101519.03;;;20.91;48.49
64844;BME280;51310;52.198;5.422;2023-06-10T07:04:19;101505.47;;;20.78;48.60
64844;BME280;51310;52.198;5.422;2023-06-10T07:06:47;101141.31;;;18.50;49.02
64844;BME280;51310;52.198;5.422;2023-06-10T07:09:13;101665.69;;;21.53;48.83
64844;BME280;51310;52.198;5.422;2023-06-10T07:11:39;101172.91;;;18.55;49.02
64844;BME280;51310;52.198;5.422;2023-06-10T07:14:07;101134.47;;;18.33;48.43
64844;BME280;51310;52.198;5.422;2023-06-10T07:16:33;101637.03;;;21.45;48.24
64844;BME280;51310;52.198;5.422;2023-06-10T07:18:59;101669.94;;;21.62;48.06
64844;BME280;51310;52.198;5.422;2023-06-10T07:21:25;101636.34;;;21.86;48.39
64844;BME280;51310;52.198;5.422;2023-06-10T07:23:51;101675.56;;;21.67;47.81
64844;BME280;51310;52.198;5.422;2023-06-10T07:26:22;101543.47;;;21.11;47.88
64844;BME280;51310;52.198;5.422;2023-06-10T07:28:48;101639.31;;;21.91;47.15
64844;BME280;51310;52.198;5.422;2023-06-10T07:31:15;101553.09;;;21.42;46.86
64844;BME280;51310;52.198;5.422;2023-06-10T07:33:41;101228.88;;;19.53;46.51
64844;BME280;51310;52.198;5.422;2023-06-10T07:36:07;101637.72;;;22.31;46.94
64844;BME280;51310;52.198;5.422;2023-06-10T07:38:33;101552.41;;;22.17;47.09
64844;BME280;51310;52.198;5.422;2023-06-10T07:40:59;101646.56;;;22.88;45.75
64844;BME280;51310;52.198;5.422;2023-06-10T07:43:25;101184.13;;;20.25;45.50
64844;BME280;51310;52.198;5.422;2023-06-10T07:45:51;101640.00;;;22.69;45.84
64844;BME280;51310;52.198;5.422;2023-06-10T07:48:17;101645.25;;;22.77;46.21
64844;BME280;51310;52.198;5.422;2023-06-10T07:50:43;101646.44;;;22.74;44.59
64844;BME280;51310;52.198;5.422;2023-06-10T07:53:10;101635.28;;;22.77;45.35
64844;BME280;51310;52.198;5.422;2023-06-10T07:55:36;101648.16;;;22.82;44.84
64844;BME280;51310;52.198;5.422;2023-06-10T07:58:02;101182.19;;;20.12;44.29
64844;BME280;51310;52.198;5.422;2023-06-10T08:00:28;101654.50;;;23.02;44.62
64844;BME280;51310;52.198;5.422;2023-06-10T08:02:53;101654.16;;;23.25;44.53
64844;BME280;51310;52.198;5.422;2023-06-10T08:05:19;101657.66;;;23.13;44.45
64844;BME280;51310;52.198;5.422;2023-06-10T08:07:46;101698.66;;;23.43;44.54
64844;BME280;51310;52.198;5.422;2023-06-10T08:10:12;101648.44;;;23.61;44.17
64844;BME280;51310;52.198;5.422;2023-06-10T08:12:37;101257.72;;;21.07;43.26
64844;BME280;51310;52.198;5.422;2023-06-10T08:15:04;101195.47;;;20.76;42.55
64844;BME280;51310;52.198;5.422;2023-06-10T08:17:31;101651.31;;;23.66;42.57
64844;BME280;51310;52.198;5.422;2023-06-10T08:19:57;101643.22;;;23.93;41.40
64844;BME280;51310;52.198;5.422;2023-06-10T08:22:23;101644.22;;;24.12;41.13
64844;BME280;51310;52.198;5.422;2023-06-10T08:24:49;101645.06;;;24.12;41.84
64844;BME280;51310;52.198;5.422;2023-06-10T08:27:15;101291.25;;;22.07;41.47
64844;BME280;51310;52.198;5.422;2023-06-10T08:29:41;101646.72;;;24.46;41.77
64844;BME280;51310;52.198;5.422;2023-06-10T08:32:07;101233.16;;;21.98;41.75
64844;BME280;51310;52.198;5.422;2023-06-10T08:34:36;101157.66;;;21.52;40.99
64844;BME280;51310;52.198;5.422;2023-06-10T08:37:03;101470.47;;;23.38;40.70
64844;BME280;51310;52.198;5.422;2023-06-10T08:39:29;100910.06;;;19.90;40.83
64844;BME280;51310;52.198;5.422;2023-06-10T08:42:21;101645.00;;;24.52;42.14
64844;BME280;51310;52.198;5.422;2023-06-10T08:44:55;101646.72;;;24.46;41.63
64844;BME280;51310;52.198;5.422;2023-06-10T08:47:23;101482.94;;;23.59;41.43
64844;BME280;51310;52.198;5.422;2023-06-10T08:49:51;101653.88;;;24.79;40.47
64844;BME280;51310;52.198;5.422;2023-06-10T08:52:20;101617.25;;;24.70;39.90
64844;BME280;51310;52.198;5.422;2023-06-10T08:55:04;101640.63;;;24.58;40.16
64844;BME280;51310;52.198;5.422;2023-06-10T08:57:37;101645.75;;;24.79;40.78
64844;BME280;51310;52.198;5.422;2023-06-10T09:00:05;101647.34;;;24.93;40.12
64844;BME280;51310;52.198;5.422;2023-06-10T09:02:33;101481.53;;;24.15;40.22
64844;BME280;51310;52.198;5.422;2023-06-10T09:05:01;101213.50;;;22.44;39.75
64844;BME280;51310;52.198;5.422;2023-06-10T09:07:30;101197.75;;;22.34;38.61
64844;BME280;51310;52.198;5.422;2023-06-10T09:09:57;101599.72;;;24.79;39.48
64844;BME280;51310;52.198;5.422;2023-06-10T09:12:28;101362.38;;;23.65;38.81
64844;BME280;51310;52.198;5.422;2023-06-10T09:14:54;101134.84;;;22.47;37.59
64844;BME280;51310;52.198;5.422;2023-06-10T09:17:20;101552.50;;;25.06;39.09
64844;BME280;51310;52.198;5.422;2023-06-10T09:19:46;101572.72;;;25.35;38.19
64844;BME280;51310;52.198;5.422;2023-06-10T09:22:13;101332.13;;;23.81;37.35
64844;BME280;51310;52.198;5.422;2023-06-10T09:24:39;101535.97;;;24.83;37.65
64844;BME280;51310;52.198;5.422;2023-06-10T09:27:07;101240.16;;;23.12;37.83
64844;BME280;51310;52.198;5.422;2023-06-10T09:29:53;101198.75;;;23.18;38.09
64844;BME280;51310;52.198;5.422;2023-06-10T09:32:21;101674.06;;;25.91;36.49
64844;BME280;51310;52.198;5.422;2023-06-10T09:34:47;101322.72;;;23.90;37.77
64844;BME280;51310;52.198;5.422;2023-06-10T09:37:23;101664.56;;;26.25;37.03
64844;BME280;51310;52.198;5.422;2023-06-10T09:40:06;101600.28;;;25.32;37.10
64844;BME280;51310;52.198;5.422;2023-06-10T09:42:36;101639.06;;;26.26;36.78
64844;BME280;51310;52.198;5.422;2023-06-10T09:45:05;101306.16;;;24.12;36.20
64844;BME280;51310;52.198;5.422;2023-06-10T09:47:32;101639.31;;;26.24;35.53
64844;BME280;51310;52.198;5.422;2023-06-10T09:49:59;101549.72;;;25.70;36.65
64844;BME280;51310;52.198;5.422;2023-06-10T09:52:27;101184.84;;;23.59;36.90
64844;BME280;51310;52.198;5.422;2023-06-10T09:55:00;101590.59;;;25.93;37.02
64844;BME280;51310;52.198;5.422;2023-06-10T09:57:32;101541.44;;;25.83;36.17
64844;BME280;51310;52.198;5.422;2023-06-10T10:00:11;101259.53;;;24.16;35.05
64844;BME280;51310;52.198;5.422;2023-06-10T10:02:46;101660.28;;;26.36;35.11
64844;BME280;51310;52.198;5.422;2023-06-10T10:05:18;100839.69;;;21.40;35.75
64844;BME280;51310;52.198;5.422;2023-06-10T10:07:48;101558.56;;;26.02;34.13
64844;BME280;51310;52.198;5.422;2023-06-10T10:10:17;101565.38;;;26.11;34.42
64844;BME280;51310;52.198;5.422;2023-06-10T10:12:47;101639.88;;;26.70;33.83
64844;BME280;51310;52.198;5.422;2023-06-10T10:15:17;101635.00;;;27.08;34.27
64844;BME280;51310;52.198;5.422;2023-06-10T10:17:54;101649.00;;;27.24;32.63
64844;BME280;51310;52.198;5.422;2023-06-10T10:20:30;101549.81;;;27.03;32.45
64844;BME280;51310;52.198;5.422;2023-06-10T10:22:59;101532.44;;;26.74;31.33
64844;BME280;51310;52.198;5.422;2023-06-10T10:25:35;101201.22;;;24.70;32.22
64844;BME280;51310;52.198;5.422;2023-06-10T10:28:12;101204.44;;;24.79;31.71
64844;BME280;51310;52.198;5.422;2023-06-10T10:30:45;101663.94;;;27.33;32.23
64844;BME280;51310;52.198;5.422;2023-06-10T10:33:22;101630.72;;;27.43;31.49
64844;BME280;51310;52.198;5.422;2023-06-10T10:35:58;101282.47;;;25.25;30.03
64844;BME280;51310;52.198;5.422;2023-06-10T10:38:25;101540.19;;;27.00;30.41
64844;BME280;51310;52.198;5.422;2023-06-10T10:40:51;101272.41;;;25.62;30.65
64844;BME280;51310;52.198;5.422;2023-06-10T10:43:19;101613.44;;;27.79;28.89
64844;BME280;51310;52.198;5.422;2023-06-10T10:45:46;101614.84;;;27.81;28.93
64844;BME280;51310;52.198;5.422;2023-06-10T10:48:38;101468.47;;;26.90;29.06
64844;BME280;51310;52.198;5.422;2023-06-10T10:51:07;101528.38;;;27.48;28.96
64844;BME280;51310;52.198;5.422;2023-06-10T10:53:38;101489.81;;;27.39;28.44
64844;BME280;51310;52.198;5.422;2023-06-10T10:56:23;101607.50;;;28.17;28.52
64844;BME280;51310;52.198;5.422;2023-06-10T10:59:06;101518.47;;;27.65;28.25
64844;BME280;51310;52.198;5.422;2023-06-10T11:01:43;101374.97;;;26.14;27.67
64844;BME280;51310;52.198;5.422;2023-06-10T11:04:12;101527.31;;;27.84;27.85
64844;BME280;51310;52.198;5.422;2023-06-10T11:06:38;101247.94;;;26.11;26.92
64844;BME280;51310;52.198;5.422;2023-06-10T11:09:27;101603.28;;;27.98;27.36
64844;BME280;51310;52.198;5.422;2023-06-10T11:11:58;101637.56;;;28.34;27.07
64844;BME280;51310;52.198;5.422;2023-06-10T11:14:29;101176.84;;;25.67;26.62
64844;BME280;51310;52.198;5.422;2023-06-10T11:16:59;101198.59;;;25.79;26.76
64844;BME280;51310;52.198;5.422;2023-06-10T11:19:38;101601.69;;;28.25;27.02
64844;BME280;51310;52.198;5.422;2023-06-10T11:22:07;101379.44;;;26.92;27.34
64844;BME280;51310;52.198;5.422;2023-06-10T11:24:35;101260.06;;;26.62;27.48
64844;BME280;51310;52.198;5.422;2023-06-10T11:27:23;101531.66;;;28.09;27.03
64844;BME280;51310;52.198;5.422;2023-06-10T11:32:33;101188.19;;;26.41;26.15
64844;BME280;51310;52.198;5.422;2023-06-10T11:35:03;101155.69;;;26.34;26.00
64844;BME280;51310;52.198;5.422;2023-06-10T11:37:30;101464.88;;;28.30;25.72
64844;BME280;51310;52.198;5.422;2023-06-10T11:39:56;101470.94;;;28.48;26.01
64844;BME280;51310;52.198;5.422;2023-06-10T11:42:23;101201.84;;;26.69;26.09
64844;BME280;51310;52.198;5.422;2023-06-10T11:44:50;101189.81;;;26.65;25.88
64844;BME280;51310;52.198;5.422;2023-06-10T11:47:18;101579.03;;;28.88;26.04
64844;BME280;51310;52.198;5.422;2023-06-10T11:49:49;101167.53;;;26.40;26.39
64844;BME280;51310;52.198;5.422;2023-06-10T11:52:40;101596.16;;;28.60;26.72
64844;BME280;51310;52.198;5.422;2023-06-10T11:55:07;101479.63;;;27.93;25.62
64844;BME280;51310;52.198;5.422;2023-06-10T11:57:36;101579.78;;;28.43;25.43
64844;BME280;51310;52.198;5.422;2023-06-10T12:00:07;101577.97;;;28.49;25.67
64844;BME280;51310;52.198;5.422;2023-06-10T12:02:33;101571.66;;;28.60;25.52
64844;BME280;51310;52.198;5.422;2023-06-10T12:05:12;101567.19;;;28.94;25.38
64844;BME280;51310;52.198;5.422;2023-06-10T12:07:38;101562.22;;;29.08;25.39
64844;BME280;51310;52.198;5.422;2023-06-10T12:10:04;101504.03;;;28.40;26.45
64844;BME280;51310;52.198;5.422;2023-06-10T12:12:30;101494.88;;;28.46;26.18
64844;BME280;51310;52.198;5.422;2023-06-10T12:14:58;101476.28;;;28.72;25.31
64844;BME280;51310;52.198;5.422;2023-06-10T12:19:57;101545.22;;;29.34;24.73
64844;BME280;51310;52.198;5.422;2023-06-10T12:22:25;101045.97;;;26.30;25.29
64844;BME280;51310;52.198;5.422;2023-06-10T12:25:05;101472.88;;;28.93;25.39
64844;BME280;51310;52.198;5.422;2023-06-10T12:27:33;101132.94;;;26.47;26.29
64844;BME280;51310;52.198;5.422;2023-06-10T12:30:02;101528.59;;;29.02;26.14
64844;BME280;51310;52.198;5.422;2023-06-10T12:32:44;101105.94;;;26.29;26.17
64844;BME280;51310;52.198;5.422;2023-06-10T12:35:18;101534.41;;;29.39;25.55
64844;BME280;51310;52.198;5.422;2023-06-10T12:38:00;101565.22;;;29.74;25.52
64844;BME280;51310;52.198;5.422;2023-06-10T12:40:36;101243.66;;;27.89;25.35
64844;BME280;51310;52.198;5.422;2023-06-10T12:43:03;101453.53;;;28.49;25.71
64844;BME280;51310;52.198;5.422;2023-06-10T12:45:31;101443.25;;;28.68;26.08
64844;BME280;51310;52.198;5.422;2023-06-10T12:50:41;101178.13;;;27.45;25.24
64844;BME280;51310;52.198;5.422;2023-06-10T12:53:09;101531.50;;;29.80;24.75
64844;BME280;51310;52.198;5.422;2023-06-10T12:55:39;101164.19;;;27.70;24.62
64844;BME280;51310;52.198;5.422;2023-06-10T12:58:05;101130.88;;;27.18;25.15
64844;BME280;51310;52.198;5.422;2023-06-10T13:00:31;101157.97;;;27.13;25.19
64844;BME280;51310;52.198;5.422;2023-06-10T13:03:00;101420.03;;;28.94;25.76
64844;BME280;51310;52.198;5.422;2023-06-10T13:05:28;101531.34;;;29.19;25.06
64844;BME280;51310;52.198;5.422;2023-06-10T13:07:54;101528.78;;;28.96;24.98